Time;durP1;ratioP1;P1;durP2;ratioP2;P2;SDS_P1;SDS_P2;PMS_P1;PMS_P2;Temp;Humidity;BMP_temperature;BMP_pressure;BME280_temperature;BME280_humidity;BME280_pressure;Samples;Min_cycle;Max_cycle;Signal;HPM_P1;HPM_P2
2021/03/21 00:00:34;;;;;;;11.83;4.50;;;2.60;83.50;;;;;;5031415;28;21443;-69
2021/03/21 00:03:00;;;;;;;8.70;4.40;;;2.60;83.50;;;;;;5035376;28;20057;-69
2021/03/21 00:05:28;;;;;;;10.23;4.53;;;2.50;84.80;;;;;;5033721;28;20064;-69
2021/03/21 00:07:57;;;;;;;9.30;4.47;;;2.50;84.50;;;;;;5032881;28;20183;-69
2021/03/21 00:10:25;;;;;;;10.10;4.07;;;2.60;83.90;;;;;;5036677;28;20044;-69
2021/03/21 00:12:53;;;;;;;7.93;4.63;;;2.60;84.00;;;;;;5036388;28;20048;-69
2021/03/21 00:15:20;;;;;;;8.90;4.63;;;2.60;82.90;;;;;;5036481;28;20048;-69
2021/03/21 00:17:48;;;;;;;7.63;4.20;;;2.70;84.10;;;;;;5036831;28;20060;-69
2021/03/21 00:20:16;;;;;;;13.20;5.30;;;2.60;83.50;;;;;;5036318;28;20075;-69
2021/03/21 00:22:43;;;;;;;10.47;5.00;;;2.60;83.60;;;;;;5030219;28;20055;-69
2021/03/21 00:25:12;;;;;;;11.10;5.07;;;2.70;84.90;;;;;;5036475;28;20467;-70
2021/03/21 00:27:39;;;;;;;11.53;4.80;;;2.70;84.00;;;;;;5033740;28;20052;-69
2021/03/21 00:30:11;;;;;;;9.73;4.77;;;2.70;84.50;;;;;;5029676;28;20610;-69
2021/03/21 00:32:38;;;;;;;8.97;4.73;;;2.80;83.90;;;;;;5032221;28;20041;-69
2021/03/21 00:35:06;;;;;;;11.93;4.57;;;2.80;83.80;;;;;;5027941;28;20110;-69
2021/03/21 00:37:38;;;;;;;10.40;4.60;;;2.80;84.20;;;;;;5032354;28;20054;-69
2021/03/21 00:40:07;;;;;;;8.97;4.63;;;2.70;84.10;;;;;;5032596;28;20773;-69
2021/03/21 00:42:34;;;;;;;11.87;5.03;;;2.60;85.30;;;;;;5033195;28;20057;-69
2021/03/21 00:45:01;;;;;;;9.80;4.33;;;2.70;85.40;;;;;;5039279;28;20654;-69
2021/03/21 00:47:28;;;;;;;10.00;4.63;;;2.70;85.60;;;;;;5039548;28;20056;-69
2021/03/21 00:49:55;;;;;;;10.57;4.30;;;2.70;85.40;;;;;;5040431;28;20746;-69
2021/03/21 00:52:22;;;;;;;12.03;4.80;;;2.60;86.10;;;;;;5039216;28;20799;-69
2021/03/21 00:54:49;;;;;;;12.43;5.07;;;2.60;86.40;;;;;;5040448;28;20052;-69
2021/03/21 00:57:15;;;;;;;9.63;4.37;;;2.60;87.00;;;;;;5040840;28;20063;-69
2021/03/21 00:59:42;;;;;;;9.00;4.07;;;2.60;86.20;;;;;;5040263;28;20044;-69
2021/03/21 01:02:10;;;;;;;10.20;4.60;;;2.50;86.40;;;;;;5036124;28;20048;-69
2021/03/21 01:04:37;;;;;;;9.37;4.43;;;2.60;87.30;;;;;;5038716;28;20048;-69
2021/03/21 01:07:05;;;;;;;11.53;4.50;;;2.70;87.50;;;;;;5036756;28;20063;-69
2021/03/21 01:09:32;;;;;;;8.83;4.70;;;2.70;87.30;;;;;;5038543;28;20055;-69
2021/03/21 01:11:58;;;;;;;8.40;4.23;;;2.70;88.00;;;;;;5029583;28;20094;-69
2021/03/21 01:14:25;;;;;;;11.27;4.43;;;2.60;87.60;;;;;;5037450;28;20193;-69
2021/03/21 01:16:52;;;;;;;11.00;5.20;;;2.70;87.40;;;;;;5036988;28;20106;-69
2021/03/21 01:19:21;;;;;;;10.23;4.10;;;2.60;88.30;;;;;;5038729;28;20056;-70
2021/03/21 01:21:50;;;;;;;6.27;3.43;;;2.70;87.80;;;;;;5035580;28;20430;-69
2021/03/21 01:24:20;;;;;;;8.80;4.07;;;2.70;87.70;;;;;;5035299;28;20058;-69
2021/03/21 01:26:47;;;;;;;8.77;3.70;;;2.60;87.50;;;;;;5038589;28;20052;-69
2021/03/21 01:29:14;;;;;;;7.67;3.77;;;2.40;87.90;;;;;;5040320;28;20057;-69
2021/03/21 01:31:41;;;;;;;8.67;4.33;;;2.30;88.80;;;;;;5037479;28;20109;-69
2021/03/21 01:34:08;;;;;;;8.40;4.47;;;2.40;89.00;;;;;;5037208;28;20049;-69
2021/03/21 01:36:38;;;;;;;8.67;4.27;;;2.30;89.40;;;;;;5039199;28;20057;-70
2021/03/21 01:39:08;;;;;;;9.33;4.60;;;2.40;90.30;;;;;;5037639;28;20052;-69
2021/03/21 01:41:38;;;;;;;10.70;4.27;;;2.40;89.50;;;;;;5038392;28;20515;-69
2021/03/21 01:44:06;;;;;;;9.30;4.30;;;2.40;90.10;;;;;;5036894;28;20114;-70
2021/03/21 01:46:53;;;;;;;8.23;4.13;;;2.40;90.30;;;;;;5036692;28;20204;-69
2021/03/21 01:49:24;;;;;;;8.32;4.80;;;2.30;89.70;;;;;;5038575;28;20049;-69
2021/03/21 01:51:53;;;;;;;9.27;4.17;;;2.40;90.10;;;;;;5037801;28;20417;-69
2021/03/21 01:54:23;;;;;;;7.00;3.60;;;2.50;90.30;;;;;;5040385;28;20055;-69
2021/03/21 01:56:50;;;;;;;10.13;4.20;;;2.50;90.20;;;;;;5034923;28;20048;-69
2021/03/21 01:59:21;;;;;;;11.67;4.20;;;2.60;90.30;;;;;;5040197;28;20048;-69
2021/03/21 02:01:49;;;;;;;12.13;4.50;;;2.50;90.50;;;;;;5044697;28;20049;-69
2021/03/21 02:04:15;;;;;;;9.97;4.63;;;2.60;90.70;;;;;;5040274;28;20052;-70
2021/03/21 02:07:04;;;;;;;9.43;4.17;;;2.70;90.70;;;;;;5041364;28;20056;-69
2021/03/21 02:09:36;;;;;;;9.40;4.90;;;2.70;90.50;;;;;;5038806;28;20053;-69
2021/03/21 02:12:17;;;;;;;8.03;4.10;;;2.60;91.00;;;;;;5040401;28;20059;-69
2021/03/21 02:14:53;;;;;;;8.80;4.20;;;2.70;91.10;;;;;;5038417;28;20412;-69
2021/03/21 02:17:27;;;;;;;8.60;4.45;;;2.70;91.00;;;;;;5040123;28;20754;-69
2021/03/21 02:20:24;;;;;;;9.97;4.50;;;2.70;91.20;;;;;;5042240;28;20449;-69
2021/03/21 02:22:57;;;;;;;10.85;4.82;;;2.70;91.20;;;;;;4997326;28;20049;-69
2021/03/21 02:25:56;;;;;;;7.53;4.00;;;2.80;91.80;;;;;;5040445;28;20059;-69
2021/03/21 02:28:39;;;;;;;8.37;4.70;;;2.80;91.50;;;;;;5031680;28;20049;-69
2021/03/21 02:31:13;;;;;;;9.23;4.50;;;2.70;91.90;;;;;;5043123;28;20053;-70
2021/03/21 02:33:48;;;;;;;9.57;4.23;;;2.60;92.20;;;;;;5040623;28;20519;-69
2021/03/21 02:36:19;;;;;;;9.23;4.40;;;2.60;93.00;;;;;;5042013;28;20074;-69
2021/03/21 02:38:51;;;;;;;8.83;4.10;;;2.90;92.50;;;;;;5043774;28;20060;-70
2021/03/21 02:41:22;;;;;;;12.83;4.30;;;2.80;92.60;;;;;;5039901;28;20052;-69
2021/03/21 02:43:55;;;;;;;8.43;4.07;;;2.80;92.20;;;;;;5042199;28;20056;-69
2021/03/21 02:46:25;;;;;;;7.57;4.47;;;2.90;92.20;;;;;;5041650;28;20072;-69
2021/03/21 02:48:56;;;;;;;9.50;4.40;;;2.90;92.80;;;;;;5041429;28;20048;-69
2021/03/21 02:51:25;;;;;;;8.23;4.33;;;2.80;92.70;;;;;;5040609;28;20051;-69
2021/03/21 02:53:58;;;;;;;7.70;3.73;;;2.80;92.90;;;;;;5041394;28;20045;-69
2021/03/21 02:56:27;;;;;;;9.80;3.57;;;2.90;92.60;;;;;;5042048;28;20048;-69
2021/03/21 02:58:59;;;;;;;9.20;4.27;;;2.90;92.60;;;;;;5041441;28;20048;-69
2021/03/21 03:01:33;;;;;;;9.27;4.10;;;3.00;92.50;;;;;;5040634;28;20551;-69
2021/03/21 03:04:10;;;;;;;8.60;3.90;;;2.90;92.70;;;;;;5038822;28;20076;-69
2021/03/21 03:06:40;;;;;;;8.67;4.20;;;2.90;92.70;;;;;;5040807;28;20052;-69
2021/03/21 03:09:13;;;;;;;9.50;4.13;;;2.90;92.90;;;;;;5038713;28;20951;-69
2021/03/21 03:11:45;;;;;;;10.57;4.70;;;3.00;92.70;;;;;;5039110;28;20405;-70
2021/03/21 03:14:16;;;;;;;8.63;4.60;;;2.90;93.30;;;;;;5036201;28;20489;-69
2021/03/21 03:16:54;;;;;;;8.73;4.23;;;3.00;93.20;;;;;;5039835;28;20084;-69
2021/03/21 03:19:29;;;;;;;7.17;3.50;;;2.90;93.00;;;;;;5040126;28;20052;-69
2021/03/21 03:22:00;;;;;;;9.17;3.90;;;3.00;93.80;;;;;;5039420;28;20080;-69
2021/03/21 03:24:39;;;;;;;7.97;4.10;;;3.00;93.50;;;;;;5038673;28;20056;-69
2021/03/21 03:27:12;;;;;;;8.90;4.13;;;3.00;93.40;;;;;;5037666;28;20164;-69
2021/03/21 03:29:43;;;;;;;8.93;4.43;;;2.90;93.30;;;;;;5039307;28;20059;-69
2021/03/21 03:32:14;;;;;;;10.20;4.30;;;2.90;94.10;;;;;;5037785;28;20060;-69
2021/03/21 03:34:42;;;;;;;8.90;4.10;;;2.90;94.10;;;;;;5038487;28;20044;-69
2021/03/21 03:37:09;;;;;;;9.20;4.17;;;2.90;94.30;;;;;;5038335;28;20059;-69
2021/03/21 03:39:37;;;;;;;8.57;4.10;;;2.90;94.80;;;;;;5038838;28;20045;-69
2021/03/21 03:42:11;;;;;;;8.43;4.03;;;2.80;95.00;;;;;;5036124;28;20150;-69
2021/03/21 03:44:45;;;;;;;9.70;4.00;;;2.80;95.00;;;;;;5038441;28;20919;-69
2021/03/21 03:47:17;;;;;;;8.50;3.80;;;2.90;94.70;;;;;;5037488;28;20139;-69
2021/03/21 03:49:53;;;;;;;9.07;4.07;;;2.80;94.80;;;;;;5037922;28;20040;-69
2021/03/21 03:52:47;;;;;;;11.35;4.55;;;2.70;95.40;;;;;;5038553;28;20838;-70
2021/03/21 03:55:22;;;;;;;8.73;4.27;;;2.70;95.90;;;;;;5037983;28;20147;-69
2021/03/21 03:57:52;;;;;;;9.33;4.20;;;2.80;96.00;;;;;;5039629;28;20060;-69
2021/03/21 04:00:32;;;;;;;9.37;4.17;;;2.80;96.30;;;;;;5038891;28;20098;-69
2021/03/21 04:03:09;;;;;;;9.73;3.97;;;2.80;96.30;;;;;;5039375;28;20123;-69
2021/03/21 04:05:40;;;;;;;9.03;4.20;;;2.80;96.20;;;;;;5039969;28;20777;-69
2021/03/21 04:08:14;;;;;;;8.83;3.77;;;2.80;96.50;;;;;;5039893;28;20055;-69
2021/03/21 04:10:48;;;;;;;7.83;3.70;;;2.80;96.10;;;;;;5038778;28;20048;-69
2021/03/21 04:13:19;;;;;;;16.23;3.83;;;2.90;96.30;;;;;;5036054;28;20044;-69
2021/03/21 04:15:49;;;;;;;7.63;3.60;;;2.80;96.80;;;;;;5037335;28;20053;-69
2021/03/21 04:18:30;;;;;;;10.60;4.17;;;2.80;97.10;;;;;;5036258;28;20048;-69
2021/03/21 04:21:03;;;;;;;9.93;4.43;;;2.80;97.10;;;;;;5038547;28;20509;-70
2021/03/21 04:23:35;;;;;;;8.73;4.17;;;2.90;96.60;;;;;;5034723;28;20835;-69
2021/03/21 04:26:09;;;;;;;9.53;4.00;;;2.90;96.70;;;;;;5034366;28;20049;-69
2021/03/21 04:28:41;;;;;;;8.30;4.13;;;3.00;96.90;;;;;;5036079;28;21398;-69
2021/03/21 04:31:11;;;;;;;11.10;4.13;;;2.90;96.50;;;;;;5036425;28;20052;-69
2021/03/21 04:33:45;;;;;;;9.60;4.23;;;2.90;96.90;;;;;;5034924;28;20549;-69
2021/03/21 04:36:16;;;;;;;8.70;3.97;;;3.00;96.20;;;;;;5037791;28;20449;-69
2021/03/21 04:38:46;;;;;;;8.83;3.90;;;3.10;96.70;;;;;;5036621;28;20131;-69
2021/03/21 04:41:19;;;;;;;9.57;3.87;;;3.00;96.50;;;;;;5035533;28;20056;-69
2021/03/21 04:43:52;;;;;;;7.60;4.07;;;3.00;96.50;;;;;;5036673;28;20773;-69
2021/03/21 04:46:24;;;;;;;9.00;3.50;;;3.00;96.40;;;;;;5036487;28;20120;-69
2021/03/21 04:48:53;;;;;;;7.80;3.63;;;3.00;96.80;;;;;;5037818;28;20048;-69
2021/03/21 04:51:26;;;;;;;8.97;3.50;;;3.10;97.10;;;;;;5037038;28;20052;-69
2021/03/21 04:53:56;;;;;;;9.33;3.83;;;3.10;96.90;;;;;;5034316;28;20051;-69
2021/03/21 04:56:29;;;;;;;8.73;4.00;;;3.10;97.10;;;;;;5038067;28;20047;-69
2021/03/21 04:59:01;;;;;;;8.80;3.87;;;3.10;97.30;;;;;;5037320;28;20052;-69
2021/03/21 05:01:34;;;;;;;11.67;3.80;;;3.00;97.80;;;;;;5037068;28;20475;-69
2021/03/21 05:04:06;;;;;;;7.87;3.67;;;3.00;98.00;;;;;;5036306;28;20416;-69
2021/03/21 05:06:44;;;;;;;7.60;3.87;;;3.00;98.30;;;;;;5037589;28;20071;-69
2021/03/21 05:09:16;;;;;;;8.43;3.83;;;2.90;98.60;;;;;;5034750;28;20052;-69
2021/03/21 05:11:47;;;;;;;10.13;4.17;;;2.90;99.10;;;;;;5036338;28;20045;-69
2021/03/21 05:14:20;;;;;;;7.57;3.60;;;2.90;99.40;;;;;;5035941;28;20044;-69
2021/03/21 05:17:02;;;;;;;8.73;4.37;;;2.80;99.30;;;;;;5036554;28;20087;-69
2021/03/21 05:19:40;;;;;;;8.87;3.43;;;2.80;99.90;;;;;;5036368;28;20048;-69
2021/03/21 05:22:18;;;;;;;10.73;3.67;;;2.80;99.90;;;;;;5038081;28;20135;-70
2021/03/21 05:24:51;;;;;;;8.77;4.20;;;2.90;99.90;;;;;;5039887;28;20904;-69
2021/03/21 05:27:22;;;;;;;8.47;3.87;;;2.80;99.90;;;;;;5042328;28;20531;-69
2021/03/21 05:29:55;;;;;;;8.13;4.20;;;2.80;99.90;;;;;;5041491;28;20056;-69
2021/03/21 05:32:24;;;;;;;7.53;3.37;;;2.80;99.90;;;;;;5039931;28;20044;-69
2021/03/21 05:34:54;;;;;;;10.57;4.03;;;2.80;99.90;;;;;;5041333;28;20053;-69
2021/03/21 05:37:27;;;;;;;8.77;3.93;;;2.80;99.90;;;;;;5034082;28;20790;-69
2021/03/21 05:40:03;;;;;;;6.93;3.33;;;2.80;99.90;;;;;;5037228;28;20091;-69
2021/03/21 05:43:08;;;;;;;7.57;3.70;;;2.80;99.90;;;;;;5037087;28;20040;-69
2021/03/21 05:46:23;;;;;;;7.43;3.13;;;2.80;99.90;;;;;;5047366;28;20056;-69
2021/03/21 05:49:35;;;;;;;10.43;4.03;;;2.90;99.90;;;;;;5049249;28;20052;-69
2021/03/21 05:52:35;;;;;;;11.10;4.30;;;3.00;99.90;;;;;;5048755;28;20048;-69
2021/03/21 05:55:26;;;;;;;12.53;4.30;;;3.10;99.90;;;;;;5049903;28;20490;-69
2021/03/21 05:58:28;;;;;;;11.43;4.30;;;3.10;99.90;;;;;;5049879;28;20505;-69
2021/03/21 06:01:43;;;;;;;9.07;4.43;;;3.00;99.90;;;;;;5041776;28;20071;-69
2021/03/21 06:04:43;;;;;;;9.77;4.63;;;3.10;99.90;;;;;;4976665;28;20097;-69
2021/03/21 06:07:49;;;;;;;13.53;4.33;;;3.00;99.90;;;;;;5048584;28;20056;-69
2021/03/21 06:10:39;;;;;;;10.97;5.10;;;3.10;99.90;;;;;;5049483;28;20056;-69
2021/03/21 06:13:19;;;;;;;10.00;5.20;;;3.30;99.90;;;;;;5044084;28;20171;-69
2021/03/21 06:16:08;;;;;;;11.77;4.53;;;3.20;99.90;;;;;;5048453;28;20499;-69
2021/03/21 06:18:49;;;;;;;11.87;5.07;;;3.30;99.90;;;;;;5049320;28;20923;-69
2021/03/21 06:21:33;;;;;;;11.10;5.57;;;3.20;99.90;;;;;;5045179;28;20153;-69
2021/03/21 06:24:35;;;;;;;11.57;5.67;;;3.20;99.90;;;;;;5048123;28;20064;-69
2021/03/21 06:27:21;;;;;;;10.87;5.30;;;3.20;99.90;;;;;;5050185;28;20475;-69
2021/03/21 06:30:11;;;;;;;11.87;4.87;;;3.00;99.90;;;;;;5049779;28;20110;-69
2021/03/21 06:33:00;;;;;;;12.07;5.30;;;3.00;99.90;;;;;;5047991;28;20052;-69
2021/03/21 06:35:50;;;;;;;15.40;6.17;;;2.90;99.90;;;;;;5048824;28;20365;-69
2021/03/21 06:38:47;;;;;;;17.17;6.80;;;3.10;99.90;;;;;;5048344;28;20049;-69
2021/03/21 06:41:35;;;;;;;15.38;6.90;;;3.10;99.90;;;;;;5017584;28;20048;-69
2021/03/21 06:44:23;;;;;;;14.77;6.67;;;3.20;99.90;;;;;;5048305;28;20505;-69
2021/03/21 06:47:18;;;;;;;13.48;7.50;;;3.30;99.90;;;;;;5049481;28;20466;-69
2021/03/21 06:50:05;;;;;;;16.43;6.93;;;3.40;99.90;;;;;;5043624;28;20051;-69
2021/03/21 06:52:42;;;;;;;17.73;7.07;;;3.40;99.90;;;;;;5048037;28;20093;-69
2021/03/21 06:55:12;;;;;;;16.13;7.55;;;3.50;99.90;;;;;;5043268;28;20056;-69
2021/03/21 06:58:45;;;;;;;14.93;7.37;;;3.30;99.90;;;;;;5048534;28;20045;-69
2021/03/21 07:01:28;;;;;;;14.60;7.43;;;3.50;99.90;;;;;;5048933;28;20056;-69
2021/03/21 07:08:06;;;;;;;14.20;7.03;;;3.70;99.90;;;;;;5040458;28;20087;-69
2021/03/21 07:10:56;;;;;;;16.63;7.43;;;3.70;99.90;;;;;;4960104;28;20046;-69
2021/03/21 07:14:01;;;;;;;17.00;7.93;;;3.80;99.90;;;;;;5032070;28;20140;-69
2021/03/21 07:17:11;;;;;;;17.37;7.30;;;3.80;99.90;;;;;;5040738;28;20525;-69
2021/03/21 07:20:06;;;;;;;19.57;8.13;;;3.90;99.90;;;;;;5040176;28;20072;-69
2021/03/21 07:23:17;;;;;;;19.87;8.70;;;3.90;99.90;;;;;;5037041;28;20756;-69
2021/03/21 07:26:01;;;;;;;17.23;8.90;;;3.90;99.90;;;;;;5038391;28;20045;-69
2021/03/21 07:29:21;;;;;;;17.33;8.30;;;4.00;99.90;;;;;;5038700;28;20575;-69
2021/03/21 07:32:00;;;;;;;18.47;8.57;;;3.90;99.90;;;;;;5015752;28;20684;-69
2021/03/21 07:34:59;;;;;;;17.00;7.77;;;3.90;99.90;;;;;;5038612;28;20049;-69
2021/03/21 07:37:35;;;;;;;20.47;9.30;;;3.90;99.90;;;;;;5036065;28;20052;-69
2021/03/21 07:40:27;;;;;;;20.50;8.25;;;3.80;99.90;;;;;;5037167;28;20151;-69
2021/03/21 07:43:43;;;;;;;19.80;9.10;;;3.80;99.90;;;;;;5036636;28;20416;-69
2021/03/21 07:46:45;;;;;;;17.50;8.60;;;3.80;99.90;;;;;;5024122;28;20060;-69
2021/03/21 07:49:46;;;;;;;19.53;8.53;;;3.80;99.90;;;;;;5043430;28;20055;-69
2021/03/21 07:52:46;;;;;;;19.83;9.27;;;3.90;99.90;;;;;;5047822;28;20052;-69
2021/03/21 07:55:19;;;;;;;18.33;9.10;;;4.00;99.90;;;;;;5049275;28;20044;-70
2021/03/21 07:57:56;;;;;;;24.97;9.57;;;4.00;99.90;;;;;;5050206;28;20052;-69
2021/03/21 08:00:24;;;;;;;19.80;9.93;;;4.00;99.90;;;;;;5045228;28;20087;-69
2021/03/21 08:02:54;;;;;;;21.73;9.70;;;4.20;99.90;;;;;;5044803;28;20101;-69
2021/03/21 08:05:25;;;;;;;20.67;9.03;;;4.20;99.90;;;;;;5048344;28;20052;-69
2021/03/21 08:08:01;;;;;;;18.80;9.10;;;4.10;99.90;;;;;;5137542;27;20309;-69
2021/03/21 08:10:33;;;;;;;17.07;8.77;;;4.30;99.90;;;;;;5127658;27;20104;-69
2021/03/21 08:13:07;;;;;;;20.43;9.37;;;4.40;99.90;;;;;;5115329;27;20474;-69
2021/03/21 08:15:37;;;;;;;17.60;8.40;;;4.30;99.90;;;;;;5092487;28;20053;-69
2021/03/21 08:18:08;;;;;;;16.27;7.97;;;4.20;99.90;;;;;;5092967;28;20126;-69
2021/03/21 08:20:38;;;;;;;19.83;9.53;;;3.90;99.90;;;;;;5093938;28;20126;-69
2021/03/21 08:23:15;;;;;;;19.17;9.80;;;3.90;99.90;;;;;;5092230;28;20051;-70
2021/03/21 08:25:42;;;;;;;22.48;9.80;;;4.00;99.90;;;;;;5094357;28;20051;-70
2021/03/21 08:28:12;;;;;;;19.90;8.97;;;4.00;99.90;;;;;;5090000;28;20048;-70
2021/03/21 08:30:48;;;;;;;23.80;10.43;;;4.00;99.90;;;;;;5086375;28;20218;-70
2021/03/21 08:33:27;;;;;;;20.10;10.05;;;3.70;99.90;;;;;;5088557;28;20700;-69
2021/03/21 08:36:09;;;;;;;20.70;10.17;;;3.80;99.90;;;;;;5097920;28;20055;-69
2021/03/21 08:38:38;;;;;;;23.23;9.07;;;3.90;99.90;;;;;;5094841;28;20583;-69
2021/03/21 08:41:06;;;;;;;21.93;9.90;;;4.00;99.90;;;;;;5095333;28;20408;-69
2021/03/21 08:43:35;;;;;;;19.30;9.80;;;4.00;99.90;;;;;;5102422;28;21121;-69
2021/03/21 08:46:14;;;;;;;21.03;9.37;;;4.00;99.90;;;;;;5097765;28;20055;-69
2021/03/21 08:48:42;;;;;;;21.77;9.50;;;4.00;99.90;;;;;;5101685;28;20134;-70
2021/03/21 08:51:29;;;;;;;19.60;9.87;;;4.00;99.90;;;;;;5097224;28;20086;-69
2021/03/21 08:54:01;;;;;;;18.52;9.00;;;4.20;99.90;;;;;;5100860;28;20098;-69
2021/03/21 08:56:29;;;;;;;20.57;10.27;;;4.10;99.90;;;;;;5101841;28;20101;-69
2021/03/21 08:59:22;;;;;;;20.57;9.40;;;3.90;99.90;;;;;;5096782;28;20112;-69
2021/03/21 09:02:02;;;;;;;17.47;9.20;;;4.10;99.90;;;;;;5097137;28;20066;-69
2021/03/21 09:04:29;;;;;;;23.80;10.27;;;4.40;99.90;;;;;;5097409;28;20231;-69
2021/03/21 09:07:30;;;;;;;21.03;9.63;;;4.60;99.90;;;;;;5085527;28;20222;-68
2021/03/21 09:10:19;;;;;;;20.13;9.63;;;4.60;99.90;;;;;;5097883;28;20052;-68
2021/03/21 09:12:47;;;;;;;22.43;9.33;;;4.60;99.90;;;;;;5099553;28;20489;-69
2021/03/21 09:15:29;;;;;;;20.60;9.90;;;4.70;99.90;;;;;;5098797;28;20082;-68
2021/03/21 09:18:27;;;;;;;21.40;10.30;;;4.80;99.90;;;;;;5092014;28;20412;-69
2021/03/21 09:21:14;;;;;;;18.05;9.20;;;4.80;99.90;;;;;;5082591;28;20488;-69
2021/03/21 09:23:42;;;;;;;;;;;4.80;99.90;;;;;;5083101;28;20063;-69
2021/03/21 09:26:30;;;;;;;22.33;9.80;;;4.80;99.90;;;;;;5085814;28;19923;-69
2021/03/21 09:29:02;;;;;;;25.77;11.53;;;4.80;99.90;;;;;;5086543;28;20137;-68
2021/03/21 09:31:29;;;;;;;18.10;8.77;;;4.90;99.90;;;;;;5086302;28;20159;-68
2021/03/21 09:34:01;;;;;;;18.77;7.73;;;4.90;99.90;;;;;;5083457;28;20051;-69
2021/03/21 09:36:35;;;;;;;19.90;9.53;;;4.80;99.90;;;;;;5083201;28;20579;-69
2021/03/21 09:39:09;;;;;;;15.43;7.70;;;5.00;99.90;;;;;;5083391;28;21052;-69
2021/03/21 09:41:37;;;;;;;22.47;9.33;;;5.20;99.90;;;;;;5075913;28;20117;-68
2021/03/21 09:44:15;;;;;;;19.33;9.00;;;5.20;99.90;;;;;;5081088;28;20090;-68
2021/03/21 09:46:48;;;;;;;16.50;8.87;;;5.40;99.90;;;;;;5067655;28;20051;-68
2021/03/21 09:49:21;;;;;;;16.03;8.73;;;5.70;99.90;;;;;;5079846;28;20104;-68
2021/03/21 09:51:52;;;;;;;19.20;8.97;;;5.90;99.90;;;;;;5074402;28;20470;-68
2021/03/21 09:54:36;;;;;;;17.13;8.47;;;5.90;99.90;;;;;;5080682;28;20511;-68
2021/03/21 09:57:39;;;;;;;19.37;8.53;;;5.50;99.90;;;;;;5082999;28;20047;-68
2021/03/21 10:00:13;;;;;;;21.37;9.27;;;5.60;99.90;;;;;;5083347;28;20051;-68
2021/03/21 10:02:44;;;;;;;18.90;9.83;;;5.60;99.90;;;;;;5083716;28;20066;-68
2021/03/21 10:05:22;;;;;;;17.93;9.30;;;5.90;99.90;;;;;;5084551;28;20090;-68
2021/03/21 10:07:55;;;;;;;22.53;10.70;;;6.20;99.90;;;;;;5078702;28;20047;-68
2021/03/21 10:10:27;;;;;;;19.67;9.27;;;6.00;99.90;;;;;;5080917;28;20428;-68
2021/03/21 10:12:55;;;;;;;21.87;9.90;;;6.00;99.90;;;;;;5082175;28;20052;-68
2021/03/21 10:15:25;;;;;;;17.67;9.70;;;5.50;99.90;;;;;;5082859;28;20439;-68
2021/03/21 10:18:00;;;;;;;25.10;12.47;;;5.70;99.90;;;;;;5081718;28;20062;-68
2021/03/21 10:21:02;;;;;;;20.60;10.97;;;5.70;99.90;;;;;;5073761;28;20052;-68
2021/03/21 10:24:02;;;;;;;19.10;10.10;;;5.60;99.90;;;;;;5079359;28;20044;-68
2021/03/21 10:26:32;;;;;;;20.43;10.50;;;5.50;99.90;;;;;;5078260;28;20048;-69
2021/03/21 10:29:01;;;;;;;22.40;12.03;;;5.20;99.90;;;;;;5078962;28;20047;-69
2021/03/21 10:31:34;;;;;;;22.40;11.13;;;5.20;99.90;;;;;;5081208;28;20047;-69
2021/03/21 10:34:47;;;;;;;24.37;11.77;;;5.30;99.90;;;;;;5082408;28;20408;-69
2021/03/21 10:37:51;;;;;;;25.20;11.83;;;5.10;99.90;;;;;;5083059;28;20552;-69
2021/03/21 10:40:43;;;;;;;24.13;10.70;;;5.30;99.90;;;;;;5079538;28;20123;-69
2021/03/21 10:43:53;;;;;;;22.63;12.10;;;5.10;99.90;;;;;;5077526;28;20058;-69
2021/03/21 10:46:45;;;;;;;25.47;12.57;;;5.30;99.90;;;;;;5079800;28;20355;-69
2021/03/21 10:49:11;;;;;;;23.77;12.17;;;5.40;99.90;;;;;;5081605;28;20047;-69
2021/03/21 10:52:17;;;;;;;21.27;12.03;;;5.30;99.90;;;;;;5080282;28;20060;-69
2021/03/21 10:54:44;;;;;;;23.53;11.87;;;5.40;99.90;;;;;;5067545;28;20051;-68
2021/03/21 10:57:35;;;;;;;27.07;12.17;;;5.50;99.90;;;;;;5081258;28;20500;-68
2021/03/21 11:00:20;;;;;;;23.43;11.93;;;5.40;99.90;;;;;;5075422;28;20532;-69
2021/03/21 11:02:51;;;;;;;24.57;11.87;;;5.60;99.90;;;;;;5079748;28;20450;-69
2021/03/21 11:05:31;;;;;;;24.23;12.73;;;5.50;99.90;;;;;;5082554;28;21003;-69
2021/03/21 11:08:03;;;;;;;23.63;11.80;;;5.50;99.90;;;;;;5079611;28;20047;-69
2021/03/21 11:10:30;;;;;;;21.93;11.83;;;5.60;99.90;;;;;;5077154;28;20957;-69
2021/03/21 11:12:57;;;;;;;22.10;12.70;;;5.40;99.90;;;;;;5080491;28;20083;-69
2021/03/21 11:15:32;;;;;;;20.13;11.17;;;5.50;99.90;;;;;;5082532;28;20066;-69
2021/03/21 11:18:05;;;;;;;24.23;11.63;;;5.60;99.90;;;;;;5082004;28;20053;-69
2021/03/21 11:20:35;;;;;;;22.27;11.87;;;5.70;99.90;;;;;;5073628;28;20054;-69
2021/03/21 11:23:08;;;;;;;21.13;11.40;;;5.80;99.90;;;;;;5078232;28;20416;-69
2021/03/21 11:25:38;;;;;;;21.97;11.83;;;5.80;99.90;;;;;;5074967;28;20047;-69
2021/03/21 11:28:06;;;;;;;21.50;10.63;;;5.90;99.90;;;;;;5077722;28;20581;-69
2021/03/21 11:30:33;;;;;;;22.13;10.47;;;6.10;99.90;;;;;;5079526;28;20492;-69
2021/03/21 11:33:17;;;;;;;21.60;10.97;;;6.30;99.90;;;;;;5080490;28;20087;-69
2021/03/21 11:35:45;;;;;;;20.57;10.60;;;6.30;99.90;;;;;;5083411;28;20047;-69
2021/03/21 11:38:30;;;;;;;20.80;10.47;;;6.60;99.90;;;;;;5080223;28;20059;-69
2021/03/21 11:41:00;;;;;;;20.17;10.03;;;7.00;99.90;;;;;;5081379;28;20052;-68
2021/03/21 11:43:29;;;;;;;18.10;10.03;;;6.90;99.90;;;;;;5080420;28;20404;-69
2021/03/21 11:46:10;;;;;;;16.77;8.73;;;7.20;99.90;;;;;;5089143;28;20130;-69
2021/03/21 11:48:40;;;;;;;14.77;8.35;;;7.90;99.90;;;;;;5077451;28;20067;-69
2021/03/21 11:51:09;;;;;;;16.17;9.05;;;8.40;99.90;;;;;;5075487;28;20047;-69
2021/03/21 11:53:39;;;;;;;16.75;7.75;;;8.40;99.90;;;;;;5077743;28;20458;-69
2021/03/21 11:56:17;;;;;;;13.10;6.32;;;8.20;99.90;;;;;;5079632;28;20054;-69
2021/03/21 11:58:49;;;;;;;12.07;6.45;;;8.20;99.90;;;;;;5082814;28;20055;-69
2021/03/21 12:01:21;;;;;;;13.18;6.45;;;8.10;99.90;;;;;;5081325;28;20626;-69
2021/03/21 12:03:53;;;;;;;13.25;6.80;;;8.20;99.90;;;;;;5079211;28;20048;-69
2021/03/21 12:06:30;;;;;;;15.85;7.47;;;8.40;99.90;;;;;;5079949;28;20043;-69
2021/03/21 12:08:58;;;;;;;11.18;6.30;;;8.50;99.90;;;;;;5078684;28;20088;-69
2021/03/21 12:11:37;;;;;;;14.60;6.93;;;8.50;99.90;;;;;;5074814;28;20389;-69
2021/03/21 12:14:37;;;;;;;11.07;5.70;;;8.70;99.90;;;;;;5078985;28;20047;-69
2021/03/21 12:17:41;;;;;;;10.55;5.45;;;8.60;99.90;;;;;;5079357;28;20514;-69
2021/03/21 12:20:43;;;;;;;10.48;5.60;;;8.80;99.90;;;;;;5080288;28;20146;-69
2021/03/21 12:23:28;;;;;;;11.80;5.80;;;8.80;99.90;;;;;;5004753;28;20099;-69
2021/03/21 12:26:07;;;;;;;10.05;5.30;;;8.90;99.90;;;;;;5071205;28;20051;-69
2021/03/21 12:28:35;;;;;;;11.15;5.80;;;8.90;99.90;;;;;;5082116;28;20084;-69
2021/03/21 12:31:05;;;;;;;10.15;5.47;;;8.90;99.90;;;;;;5082843;28;20060;-69
2021/03/21 12:33:34;;;;;;;11.38;5.60;;;8.60;99.90;;;;;;5081165;28;20050;-69
2021/03/21 12:36:17;;;;;;;10.98;6.25;;;8.70;99.90;;;;;;5084046;28;20466;-69
2021/03/21 12:38:47;;;;;;;9.13;4.53;;;8.80;99.90;;;;;;5080452;28;20495;-69
2021/03/21 12:41:38;;;;;;;11.13;5.13;;;8.70;99.90;;;;;;5082446;28;20142;-69
2021/03/21 12:44:21;;;;;;;9.18;4.80;;;8.60;99.90;;;;;;5080341;28;20385;-70
2021/03/21 12:46:50;;;;;;;10.43;5.13;;;8.60;99.90;;;;;;5076411;28;20108;-70
2021/03/21 12:49:42;;;;;;;8.85;4.68;;;8.40;99.90;;;;;;5081587;28;20044;-69
2021/03/21 12:52:12;;;;;;;8.82;4.70;;;8.40;99.90;;;;;;5078189;28;20044;-69
2021/03/21 12:54:40;;;;;;;11.05;5.00;;;8.50;99.90;;;;;;5082697;28;20054;-70
2021/03/21 12:57:11;;;;;;;9.30;4.50;;;8.50;99.90;;;;;;5078076;28;20059;-69
2021/03/21 12:59:39;;;;;;;8.48;4.75;;;8.70;99.90;;;;;;5086002;28;20054;-68
2021/03/21 13:02:12;;;;;;;9.55;4.63;;;9.20;99.90;;;;;;5085423;28;20427;-69
2021/03/21 13:04:39;;;;;;;8.70;4.68;;;9.80;99.90;;;;;;5085681;28;20092;-70
2021/03/21 13:07:06;;;;;;;9.75;4.68;;;10.00;99.90;;;;;;5083724;28;20132;-69
2021/03/21 13:09:33;;;;;;;7.78;4.40;;;10.20;99.90;;;;;;5083932;28;20553;-68
2021/03/21 13:12:00;;;;;;;9.25;4.93;;;10.50;99.90;;;;;;5066821;28;20063;-69
2021/03/21 13:14:26;;;;;;;9.68;4.80;;;10.30;99.90;;;;;;5080217;28;20047;-69
2021/03/21 13:16:53;;;;;;;10.43;5.22;;;10.00;99.90;;;;;;5079880;28;20055;-69
2021/03/21 13:19:20;;;;;;;9.52;5.00;;;10.10;99.90;;;;;;5083644;28;21531;-68
2021/03/21 13:21:48;;;;;;;7.63;4.25;;;9.80;99.90;;;;;;5085626;28;20415;-69
2021/03/21 13:24:15;;;;;;;7.70;3.95;;;9.60;99.90;;;;;;5085339;28;20090;-69
2021/03/21 13:26:43;;;;;;;7.63;3.88;;;9.20;99.90;;;;;;5083019;28;20052;-68
2021/03/21 13:29:09;;;;;;;10.32;4.07;;;9.20;99.90;;;;;;5084478;28;20598;-68
2021/03/21 13:31:36;;;;;;;6.13;2.65;;;9.30;99.90;;;;;;5085416;28;20086;-68
2021/03/21 13:34:04;;;;;;;5.28;2.55;;;9.40;99.90;;;;;;5085394;28;20185;-68
2021/03/21 13:36:30;;;;;;;8.73;3.22;;;9.60;99.90;;;;;;5080805;28;20054;-69
2021/03/21 13:38:57;;;;;;;6.93;2.63;;;9.70;99.90;;;;;;5086137;28;20548;-69
2021/03/21 13:41:24;;;;;;;6.78;2.08;;;9.90;99.90;;;;;;5084256;28;20431;-68
2021/03/21 13:43:52;;;;;;;4.10;1.95;;;9.80;99.90;;;;;;5082795;28;20057;-68